Taos, Missouri
Current Conditions -  °F | °C
As of 12:53 PM on Thursday 23 Oct 2014 (Local Time) from KJEF Reporting Station
Overcast Overcast  
Wind Chill: 15°   Ceiling: 9000
Heat Index: 15°   Visibility: 10mi
Dew Point:   Wind: 6mph
Humidity: 62%   Direction: 170°S
Pressure: 30.15"   Gusts: NA
Location:  38.5003°N, 92.1516°W
Report Text: KJEF 231753Z 17005KT 10SM FEW022 OVC090 15/08 A3015 RMK AO2 SLP202 T01500078 10156 20078 58007
Loading
Personal Weather Stations






























Interactive Weather Map
Tropical Storm Tracking
New forecast layout! Learn more

10-Day Weather Forecast

Advertisements
Track Severe Weather on mobile